createdAt,value
2023-02-11T00:01:44.312Z,22.23
2023-02-11T00:04:46.146Z,23.00
2023-02-11T00:07:48.106Z,19.50
2023-02-11T00:10:58.307Z,20.55
2023-02-11T00:14:02.744Z,20.52
2023-02-11T00:17:04.644Z,19.73
2023-02-11T00:20:08.294Z,22.83
2023-02-11T00:23:10.688Z,22.42
2023-02-11T00:26:17.833Z,23.33
2023-02-11T00:29:20.345Z,20.15
2023-02-11T00:32:22.241Z,22.60
2023-02-11T00:35:25.334Z,22.45
2023-02-11T00:38:27.419Z,23.27
2023-02-11T00:41:29.918Z,21.35
2023-02-11T00:44:34.384Z,18.92
2023-02-11T00:47:36.418Z,19.57
2023-02-11T00:50:38.416Z,16.33
2023-02-11T00:53:40.578Z,16.80
2023-02-11T00:56:42.468Z,11.93
2023-02-11T00:59:44.797Z,16.48
2023-02-11T01:02:46.679Z,11.17
2023-02-11T01:05:48.994Z,16.08
2023-02-11T01:08:51.281Z,20.05
2023-02-11T01:11:53.310Z,20.70
2023-02-11T01:14:55.258Z,15.48
2023-02-11T01:17:57.350Z,15.27
2023-02-11T01:20:59.243Z,15.45
2023-02-11T01:24:01.125Z,18.50
2023-02-11T01:27:03.501Z,17.55
2023-02-11T01:30:08.159Z,21.08
2023-02-11T01:33:10.146Z,17.07
2023-02-11T01:36:13.096Z,21.25
2023-02-11T01:39:15.037Z,20.13
2023-02-11T01:42:19.666Z,22.52
2023-02-11T01:45:43.020Z,23.38
2023-02-11T01:48:51.219Z,19.23
2023-02-11T01:52:03.670Z,21.92
2023-02-11T01:55:29.363Z,21.65
2023-02-11T01:58:32.737Z,18.23
2023-02-11T02:01:38.060Z,22.77
2023-02-11T02:04:51.780Z,21.77
2023-02-11T02:08:03.281Z,17.42
2023-02-11T02:11:07.452Z,22.13
2023-02-11T02:14:12.035Z,22.70
2023-02-11T02:17:38.966Z,24.33
2023-02-11T02:20:59.419Z,23.23
2023-02-11T02:24:22.267Z,23.73
2023-02-11T02:27:53.371Z,23.48
2023-02-11T02:30:55.342Z,24.42
2023-02-11T02:34:21.494Z,24.17
2023-02-11T02:38:05.192Z,21.17
2023-02-11T02:41:10.958Z,23.15
2023-02-11T02:44:12.826Z,17.40
2023-02-11T02:47:14.834Z,25.27
2023-02-11T02:50:25.024Z,26.35
2023-02-11T02:53:42.060Z,25.33
2023-02-11T02:56:43.820Z,19.17
2023-02-11T02:59:48.280Z,28.13
2023-02-11T03:03:06.424Z,27.25
2023-02-11T03:06:15.620Z,24.90
2023-02-11T03:09:25.395Z,19.00
2023-02-11T03:12:31.174Z,26.85
2023-02-11T03:15:43.659Z,26.55
2023-02-11T03:18:52.736Z,26.33
2023-02-11T03:21:56.099Z,21.17
2023-02-11T03:24:58.344Z,25.60
2023-02-11T03:28:10.535Z,21.35
2023-02-11T03:31:22.728Z,14.88
2023-02-11T03:34:36.435Z,21.63
2023-02-11T03:37:43.903Z,14.77
2023-02-11T03:40:46.329Z,17.97
2023-02-11T03:44:03.711Z,22.40
2023-02-11T03:47:09.189Z,17.80
2023-02-11T03:50:14.933Z,26.42
2023-02-11T03:53:18.173Z,25.70
2023-02-11T03:56:26.328Z,19.33
2023-02-11T03:59:29.061Z,17.45
2023-02-11T04:02:34.570Z,11.70
2023-02-11T04:05:37.179Z,14.52
2023-02-11T04:08:39.091Z,12.10
2023-02-11T04:11:41.022Z,27.60
2023-02-11T04:14:42.875Z,24.42
2023-02-11T04:17:44.730Z,28.02
2023-02-11T04:20:46.675Z,13.68
2023-02-11T04:23:48.795Z,29.38
2023-02-11T04:26:50.736Z,19.07
2023-02-11T04:29:52.728Z,24.98
2023-02-11T04:32:54.665Z,28.98
2023-02-11T04:35:56.551Z,30.08
2023-02-11T04:38:59.254Z,29.25
2023-02-11T04:42:01.107Z,29.73
2023-02-11T04:45:03.267Z,26.20
2023-02-11T04:48:09.022Z,31.67
2023-02-11T04:51:11.587Z,25.95
2023-02-11T04:54:13.467Z,24.88
2023-02-11T04:57:15.599Z,23.10
2023-02-11T05:00:17.656Z,26.63
2023-02-11T05:03:19.605Z,30.25
2023-02-11T05:06:21.788Z,30.50
2023-02-11T05:09:23.616Z,15.85
2023-02-11T05:12:25.622Z,25.90
2023-02-11T05:15:28.175Z,28.75
2023-02-11T05:18:30.272Z,29.88
2023-02-11T05:21:32.282Z,26.42
2023-02-11T05:24:34.771Z,29.80
2023-02-11T05:27:36.625Z,29.23
2023-02-11T05:30:38.870Z,26.27
2023-02-11T05:33:41.530Z,24.58
2023-02-11T05:36:43.458Z,27.67
2023-02-11T05:39:45.379Z,24.10
2023-02-11T05:42:47.287Z,22.80
2023-02-11T05:45:49.509Z,15.10
2023-02-11T05:48:51.920Z,22.15
2023-02-11T05:51:53.825Z,26.20
2023-02-11T05:54:55.782Z,27.15
2023-02-11T05:57:57.762Z,23.83
2023-02-11T06:00:59.598Z,18.20
2023-02-11T06:04:01.637Z,23.38
2023-02-11T06:07:04.147Z,24.92
2023-02-11T06:10:06.621Z,28.50
2023-02-11T06:13:08.554Z,26.43
2023-02-11T06:16:10.473Z,27.20
2023-02-11T06:19:13.139Z,30.92
2023-02-11T06:22:15.382Z,28.02
2023-02-11T06:25:17.436Z,22.60
2023-02-11T06:28:19.750Z,21.13
2023-02-11T06:31:22.111Z,23.83
2023-02-11T06:34:24.134Z,24.77
2023-02-11T06:37:25.961Z,25.17
2023-02-11T06:40:27.807Z,26.45
2023-02-11T06:43:29.658Z,17.70
2023-02-11T06:46:31.909Z,16.65
2023-02-11T06:49:33.844Z,14.93
2023-02-11T06:52:35.662Z,25.15
2023-02-11T06:55:37.578Z,21.58
2023-02-11T06:58:39.758Z,27.77
2023-02-11T07:01:41.711Z,25.80
2023-02-11T07:04:44.062Z,23.90
2023-02-11T07:07:46.010Z,28.38
2023-02-11T07:10:47.975Z,24.63
2023-02-11T07:13:51.387Z,21.53
2023-02-11T07:16:53.255Z,25.63
2023-02-11T07:19:55.083Z,22.85
2023-02-11T07:22:57.044Z,26.73
2023-02-11T07:26:03.669Z,24.88
2023-02-11T07:29:05.790Z,27.57
2023-02-11T07:32:07.674Z,26.38
2023-02-11T07:35:09.562Z,25.70
2023-02-11T07:38:11.387Z,30.48
2023-02-11T07:41:16.013Z,28.40
2023-02-11T07:44:17.866Z,29.13
2023-02-11T07:47:19.879Z,21.65
2023-02-11T07:50:21.998Z,65.78
2023-02-11T07:53:24.070Z,40.88
2023-02-11T07:56:26.387Z,27.35
2023-02-11T07:59:28.722Z,13.33
2023-02-11T08:02:30.583Z,27.77
2023-02-11T08:05:32.425Z,23.33
2023-02-11T08:08:34.612Z,20.80
2023-02-11T08:11:37.005Z,23.90
2023-02-11T08:14:39.036Z,18.07
2023-02-11T08:17:41.007Z,18.50
2023-02-11T08:20:43.018Z,24.05
2023-02-11T08:23:46.428Z,13.90
2023-02-11T08:26:48.769Z,22.10
2023-02-11T08:29:50.690Z,24.73
2023-02-11T08:32:52.776Z,17.35
2023-02-11T08:35:54.624Z,21.10
2023-02-11T08:39:16.084Z,23.55
2023-02-11T08:42:21.979Z,24.35
2023-02-11T08:45:23.918Z,16.97
2023-02-11T08:48:26.274Z,17.50
2023-02-11T08:51:33.040Z,26.40
2023-02-11T08:54:35.035Z,21.52
2023-02-11T08:57:36.985Z,24.85
2023-02-11T09:00:38.943Z,18.27
2023-02-11T09:03:41.183Z,29.95
2023-02-11T09:06:43.240Z,29.42
2023-02-11T09:09:45.248Z,27.83
2023-02-11T09:12:47.171Z,32.53
2023-02-11T09:15:49.040Z,21.63
2023-02-11T09:18:53.669Z,24.77
2023-02-11T09:21:55.959Z,24.88
2023-02-11T09:24:57.926Z,24.90
2023-02-11T09:27:59.847Z,23.77
2023-02-11T09:31:09.247Z,26.90
2023-02-11T09:34:11.870Z,24.48
2023-02-11T09:37:13.953Z,24.63
2023-02-11T09:40:16.880Z,17.77
2023-02-11T09:43:22.720Z,27.35
2023-02-11T09:46:27.688Z,17.77
2023-02-11T09:49:44.383Z,28.90
2023-02-11T09:53:07.614Z,27.00
2023-02-11T09:56:14.836Z,19.33
2023-02-11T09:59:17.682Z,28.65
2023-02-11T10:02:24.127Z,21.90
2023-02-11T10:05:52.541Z,25.55
2023-02-11T10:09:11.857Z,22.15
2023-02-11T10:12:37.547Z,22.83
2023-02-11T10:16:08.403Z,19.42
2023-02-11T10:19:19.314Z,25.83
2023-02-11T10:22:43.139Z,24.38
2023-02-11T10:25:49.116Z,20.92
2023-02-11T10:28:54.371Z,25.25
2023-02-11T10:31:58.558Z,33.85
2023-02-11T10:35:04.367Z,25.97
2023-02-11T10:38:06.330Z,27.45
2023-02-11T10:41:15.315Z,35.65
2023-02-11T10:44:30.136Z,32.10
2023-02-11T10:47:39.669Z,36.38
2023-02-11T10:50:41.535Z,34.60
2023-02-11T10:53:43.725Z,26.58
2023-02-11T10:56:50.224Z,33.05
2023-02-11T10:59:58.363Z,35.17
2023-02-11T11:03:01.945Z,31.08
2023-02-11T11:06:09.328Z,34.77
2023-02-11T11:09:28.839Z,29.85
2023-02-11T11:12:35.092Z,33.53
2023-02-11T11:15:37.028Z,20.35
2023-02-11T11:18:40.597Z,20.73
2023-02-11T12:07:32.735Z,21.35
2023-02-11T12:10:55.362Z,29.00
2023-02-11T12:14:40.161Z,25.07
2023-02-11T12:17:51.091Z,31.63
2023-02-11T12:21:30.326Z,31.58
2023-02-11T12:24:42.557Z,24.98
2023-02-11T12:28:13.562Z,34.53
2023-02-11T12:31:24.277Z,27.57
2023-02-11T12:34:50.666Z,33.60
2023-02-11T12:38:08.381Z,32.88
2023-02-11T12:41:46.344Z,35.10
2023-02-11T12:45:12.856Z,34.90
2023-02-11T12:48:45.393Z,34.77
2023-02-11T12:51:50.377Z,35.22
2023-02-11T12:55:09.459Z,40.83
2023-02-11T12:58:35.644Z,30.83
2023-02-11T13:01:45.191Z,35.60
2023-02-11T13:04:54.257Z,34.43
2023-02-11T13:08:04.624Z,35.05
2023-02-11T13:11:17.278Z,25.58
2023-02-11T13:14:24.525Z,27.63
2023-02-11T13:17:34.951Z,29.70
2023-02-11T13:21:03.581Z,28.80
2023-02-11T13:24:13.480Z,25.55
2023-02-11T13:27:41.510Z,30.02
2023-02-11T13:30:51.410Z,26.40
2023-02-11T13:33:53.824Z,23.42
2023-02-11T13:36:57.414Z,28.57
2023-02-11T13:40:21.224Z,27.15
2023-02-11T13:43:28.423Z,26.08
2023-02-11T13:46:54.167Z,27.50
2023-02-11T13:49:57.013Z,25.52
2023-02-11T13:53:01.278Z,24.80
2023-02-11T13:56:11.413Z,20.23
2023-02-11T13:59:25.872Z,26.60
2023-02-11T14:02:56.045Z,20.05
2023-02-11T14:06:28.804Z,31.08
2023-02-11T14:09:37.064Z,24.50
2023-02-11T14:12:39.348Z,26.10
2023-02-11T14:15:41.209Z,26.67
2023-02-11T14:18:49.352Z,27.00
2023-02-11T14:21:53.666Z,19.00
2023-02-11T14:25:04.726Z,24.23
2023-02-11T14:28:22.372Z,27.40
2023-02-11T14:31:36.106Z,23.95
2023-02-11T14:34:46.688Z,23.90
2023-02-11T14:37:55.860Z,23.48
2023-02-11T14:41:10.854Z,19.87
2023-02-11T14:44:27.926Z,25.38
2023-02-11T14:47:46.553Z,25.88
2023-02-11T14:51:10.653Z,25.48
2023-02-11T14:54:17.362Z,25.35
2023-02-11T14:57:20.556Z,21.07
2023-02-11T15:00:23.117Z,24.60
2023-02-11T15:03:31.993Z,24.05
2023-02-11T15:06:39.974Z,22.67
2023-02-11T15:09:45.712Z,28.42
2023-02-11T15:12:49.358Z,28.33
2023-02-11T15:15:56.294Z,23.08
2023-02-11T15:19:02.821Z,27.63
2023-02-11T15:22:07.331Z,27.23
2023-02-11T15:25:15.027Z,28.85
2023-02-11T15:28:28.993Z,28.63
2023-02-11T15:31:33.867Z,28.88
2023-02-11T15:34:37.553Z,34.25
2023-02-11T15:37:40.723Z,28.73
2023-02-11T15:40:55.956Z,17.77
2023-02-11T15:43:57.918Z,19.70
2023-02-11T15:47:00.367Z,25.25
2023-02-11T15:50:03.097Z,24.80
2023-02-11T15:53:24.340Z,30.90
2023-02-11T15:56:30.589Z,25.52
2023-02-11T15:59:39.322Z,27.27
2023-02-11T16:02:46.675Z,30.20
2023-02-11T16:05:48.958Z,33.10
2023-02-11T16:09:06.301Z,37.42
2023-02-11T16:12:27.207Z,32.03
2023-02-11T16:15:50.926Z,25.57
2023-02-11T16:19:04.851Z,24.48
2023-02-11T16:22:10.603Z,26.85
2023-02-11T16:25:20.759Z,26.02
2023-02-11T16:28:23.004Z,20.05
2023-02-11T16:31:33.530Z,24.63
2023-02-11T16:34:36.547Z,24.20
2023-02-11T16:37:38.624Z,22.45
2023-02-11T16:40:41.148Z,21.02
2023-02-11T16:43:43.263Z,27.70
2023-02-11T16:46:45.670Z,25.37
2023-02-11T16:49:47.997Z,22.25
2023-02-11T16:52:52.299Z,29.45
2023-02-11T16:55:54.203Z,30.02
2023-02-11T16:58:56.564Z,31.90
2023-02-11T17:01:58.545Z,36.50
2023-02-11T17:05:03.445Z,41.83
2023-02-11T17:08:06.483Z,31.73
2023-02-11T17:11:08.615Z,28.33
2023-02-11T17:14:10.762Z,28.70
2023-02-11T17:17:13.910Z,29.43
2023-02-11T17:20:16.427Z,34.67
2023-02-11T17:23:18.491Z,29.25
2023-02-11T17:26:20.643Z,28.15
2023-02-11T17:29:24.533Z,27.90
2023-02-11T17:32:26.677Z,27.97
2023-02-11T17:35:28.847Z,27.20
2023-02-11T17:38:30.880Z,29.27
2023-02-11T17:41:33.302Z,25.17
2023-02-11T17:44:35.769Z,28.30
2023-02-11T17:47:37.997Z,26.23
2023-02-11T17:50:40.079Z,29.73
2023-02-11T17:53:42.230Z,24.30
2023-02-11T17:56:45.438Z,29.20
2023-02-11T17:59:48.032Z,27.20
2023-02-11T18:02:50.377Z,22.87
2023-02-11T18:09:12.072Z,29.17
2023-02-11T18:12:14.345Z,31.05
2023-02-11T18:15:16.608Z,31.05
2023-02-11T18:18:18.432Z,29.50
2023-02-11T18:21:22.355Z,33.13
2023-02-11T18:24:24.479Z,32.85
2023-02-11T18:27:28.108Z,33.40
2023-02-11T18:30:33.913Z,33.40
2023-02-11T18:33:37.587Z,32.33
2023-02-11T18:36:39.846Z,33.50
2023-02-11T18:39:42.909Z,33.42
2023-02-11T18:42:46.273Z,38.03
2023-02-11T18:45:50.489Z,35.22
2023-02-11T18:48:56.001Z,34.43
2023-02-11T18:51:58.868Z,34.03
2023-02-11T18:55:01.006Z,34.42
2023-02-11T18:58:03.207Z,35.05
2023-02-11T19:01:27.564Z,35.00
2023-02-11T19:04:29.841Z,37.40
2023-02-11T19:07:32.587Z,33.42
2023-02-11T19:10:34.840Z,39.05
2023-02-11T19:13:37.421Z,39.80
2023-02-11T19:16:41.909Z,39.50
2023-02-11T19:19:44.059Z,37.97
2023-02-11T19:22:46.170Z,41.35
2023-02-11T19:25:48.607Z,41.70
2023-02-11T19:28:50.735Z,38.38
2023-02-11T19:31:53.043Z,38.20
2023-02-11T19:34:55.276Z,40.50
2023-02-11T19:37:57.411Z,28.52
2023-02-11T19:40:59.508Z,40.45
2023-02-11T19:44:02.868Z,34.92
2023-02-11T19:47:06.964Z,39.28
2023-02-11T19:50:09.618Z,38.63
2023-02-11T19:53:11.749Z,37.70
2023-02-11T19:56:15.502Z,38.88
2023-02-11T19:59:17.711Z,38.47
2023-02-11T20:02:20.794Z,35.85
2023-02-11T20:05:22.991Z,36.00
2023-02-11T20:08:24.953Z,37.55
2023-02-11T20:11:28.899Z,38.70
2023-02-11T20:14:31.684Z,36.05
2023-02-11T20:17:33.931Z,36.45
2023-02-11T20:20:41.304Z,41.83
2023-02-11T20:23:46.506Z,43.85
2023-02-11T20:26:49.349Z,43.85
2023-02-11T20:29:51.540Z,41.78
2023-02-11T20:32:53.450Z,44.72
2023-02-11T20:35:57.997Z,38.37
2023-02-11T20:39:01.208Z,44.30
2023-02-11T20:42:03.810Z,41.83
2023-02-11T20:45:06.082Z,42.58
2023-02-11T20:48:08.304Z,39.40
2023-02-11T20:51:17.535Z,40.17
2023-02-11T20:54:21.007Z,38.85
2023-02-11T20:57:23.147Z,40.42
2023-02-11T21:00:25.642Z,39.17
2023-02-11T21:03:27.771Z,40.63
2023-02-11T21:06:39.987Z,39.90
2023-02-11T21:09:42.371Z,39.25
2023-02-11T21:12:44.540Z,42.85
2023-02-11T21:15:46.407Z,42.22
2023-02-11T21:18:52.465Z,42.40
2023-02-11T21:21:57.273Z,38.53
2023-02-11T21:25:01.056Z,41.75
2023-02-11T21:28:03.616Z,40.20
2023-02-11T21:31:05.817Z,40.67
2023-02-11T21:34:08.620Z,42.03
2023-02-11T21:37:10.670Z,41.93
2023-02-11T21:40:14.830Z,43.00
2023-02-11T21:43:16.946Z,43.30
2023-02-11T21:46:19.846Z,43.90
2023-02-11T21:49:21.836Z,42.15
2023-02-11T21:52:24.171Z,40.67
2023-02-11T21:55:26.279Z,42.90
2023-02-11T21:58:28.322Z,40.22
2023-02-11T22:01:35.233Z,39.72
2023-02-11T22:04:37.168Z,40.28
2023-02-11T22:07:39.086Z,38.27
2023-02-11T22:10:41.076Z,40.05
2023-02-11T22:13:43.187Z,43.80
2023-02-11T22:16:47.561Z,46.45
2023-02-11T22:19:50.042Z,46.58
2023-02-11T22:22:51.966Z,44.83
2023-02-11T22:25:54.103Z,43.28
2023-02-11T22:28:56.924Z,45.13
2023-02-11T22:31:59.398Z,43.75
2023-02-11T22:35:01.368Z,46.10
2023-02-11T22:38:04.504Z,44.00
2023-02-11T22:41:09.177Z,41.63
2023-02-11T22:44:12.014Z,44.53
2023-02-11T22:47:13.911Z,42.42
2023-02-11T22:50:16.190Z,43.33
2023-02-11T22:53:18.514Z,41.50
2023-02-11T22:56:20.664Z,44.55
2023-02-11T22:59:22.837Z,42.70
2023-02-11T23:02:24.837Z,42.55
2023-02-11T23:05:27.391Z,44.28
2023-02-11T23:08:30.967Z,42.60
2023-02-11T23:11:33.794Z,39.45
2023-02-11T23:14:35.954Z,38.88
2023-02-11T23:17:37.827Z,37.05
2023-02-11T23:20:42.842Z,35.33
2023-02-11T23:23:45.237Z,35.67
2023-02-11T23:26:47.128Z,42.15
2023-02-11T23:29:49.585Z,41.05
2023-02-11T23:32:52.750Z,36.42
2023-02-11T23:35:54.936Z,37.33
2023-02-11T23:38:56.990Z,36.13
2023-02-11T23:41:59.606Z,37.05
2023-02-11T23:45:01.896Z,37.20
2023-02-11T23:48:10.349Z,37.95
2023-02-11T23:51:12.240Z,35.45
2023-02-11T23:54:14.799Z,33.93
2023-02-11T23:57:16.942Z,34.75
